North Rose, New York
Current Conditions -  °F | °C
As of 8:31 AM on Friday 28 Nov 2014 (Local Time) from KFZY Reporting Station
Light Snow Light Snow  
Wind Chill: 16°   Ceiling: 3100
Heat Index: 26°   Visibility: 5mi
Dew Point: 22°   Wind: 10mph
Humidity: 84%   Direction: 250°WSW
Pressure: 30.18"   Gusts: NA
Location:  43.19°N, 76.89°W
Report Text: KFZY 281331Z AUTO 25009KT 5SM -SN BR SCT024 BKN031 OVC041 M03/M06 A3018 RMK AO2 P0001 T10331056
Loading
Personal Weather Stations






























Interactive Weather Map New forecast layout! Learn more

10-Day Weather Forecast

Advertisements
Track Severe Weather on mobile